sensor_id;sensor_type;location;lat;lon;timestamp;temperature;humidity
23499;DHT22;11926;48.120;11.562;2023-06-14T00:01:02;13.80;70.90
23499;DHT22;11926;48.120;11.562;2023-06-14T00:03:54;13.80;71.20
23499;DHT22;11926;48.120;11.562;2023-06-14T00:06:41;13.70;71.60
23499;DHT22;11926;48.120;11.562;2023-06-14T00:09:30;13.60;71.70
23499;DHT22;11926;48.120;11.562;2023-06-14T00:12:17;13.60;71.80
23499;DHT22;11926;48.120;11.562;2023-06-14T00:15:07;13.50;71.70
23499;DHT22;11926;48.120;11.562;2023-06-14T00:17:55;13.50;72.20
23499;DHT22;11926;48.120;11.562;2023-06-14T00:20:42;13.40;72.20
23499;DHT22;11926;48.120;11.562;2023-06-14T00:23:29;13.40;72.50
23499;DHT22;11926;48.120;11.562;2023-06-14T00:26:16;13.30;72.60
23499;DHT22;11926;48.120;11.562;2023-06-14T00:29:03;13.30;73.00
23499;DHT22;11926;48.120;11.562;2023-06-14T00:31:52;13.20;73.20
23499;DHT22;11926;48.120;11.562;2023-06-14T00:34:39;13.10;73.60
23499;DHT22;11926;48.120;11.562;2023-06-14T00:37:26;13.10;74.00
23499;DHT22;11926;48.120;11.562;2023-06-14T00:40:13;13.00;74.20
23499;DHT22;11926;48.120;11.562;2023-06-14T00:43:04;13.00;74.50
23499;DHT22;11926;48.120;11.562;2023-06-14T00:45:51;13.00;74.80
23499;DHT22;11926;48.120;11.562;2023-06-14T00:48:40;12.90;74.90
23499;DHT22;11926;48.120;11.562;2023-06-14T00:51:28;12.90;75.30
23499;DHT22;11926;48.120;11.562;2023-06-14T00:54:18;12.80;75.40
23499;DHT22;11926;48.120;11.562;2023-06-14T00:57:05;12.80;75.50
23499;DHT22;11926;48.120;11.562;2023-06-14T00:59:52;12.80;75.60
23499;DHT22;11926;48.120;11.562;2023-06-14T01:02:41;12.70;76.00
23499;DHT22;11926;48.120;11.562;2023-06-14T01:05:30;12.60;76.10
23499;DHT22;11926;48.120;11.562;2023-06-14T01:08:24;12.60;76.50
23499;DHT22;11926;48.120;11.562;2023-06-14T01:11:20;12.60;76.70
23499;DHT22;11926;48.120;11.562;2023-06-14T01:14:10;12.50;76.70
23499;DHT22;11926;48.120;11.562;2023-06-14T01:16:59;12.50;76.80
23499;DHT22;11926;48.120;11.562;2023-06-14T01:19:47;12.40;77.00
23499;DHT22;11926;48.120;11.562;2023-06-14T01:22:36;12.40;77.10
23499;DHT22;11926;48.120;11.562;2023-06-14T01:25:25;12.40;77.30
23499;DHT22;11926;48.120;11.562;2023-06-14T01:28:15;12.30;77.50
23499;DHT22;11926;48.120;11.562;2023-06-14T01:31:04;12.30;77.90
23499;DHT22;11926;48.120;11.562;2023-06-14T01:33:52;12.20;77.80
23499;DHT22;11926;48.120;11.562;2023-06-14T01:36:44;12.20;78.20
23499;DHT22;11926;48.120;11.562;2023-06-14T01:39:32;12.20;78.40
23499;DHT22;11926;48.120;11.562;2023-06-14T01:42:22;12.10;78.40
23499;DHT22;11926;48.120;11.562;2023-06-14T01:45:10;12.10;78.40
23499;DHT22;11926;48.120;11.562;2023-06-14T01:47:58;12.00;78.40
23499;DHT22;11926;48.120;11.562;2023-06-14T01:50:47;12.00;78.80
23499;DHT22;11926;48.120;11.562;2023-06-14T01:53:34;12.00;78.80
23499;DHT22;11926;48.120;11.562;2023-06-14T01:56:22;11.90;79.00
23499;DHT22;11926;48.120;11.562;2023-06-14T01:59:11;11.90;79.50
23499;DHT22;11926;48.120;11.562;2023-06-14T02:01:58;11.80;79.70
23499;DHT22;11926;48.120;11.562;2023-06-14T02:04:45;11.80;79.90
23499;DHT22;11926;48.120;11.562;2023-06-14T02:07:33;11.80;80.20
23499;DHT22;11926;48.120;11.562;2023-06-14T02:10:20;11.70;79.90
23499;DHT22;11926;48.120;11.562;2023-06-14T02:13:07;11.70;80.20
23499;DHT22;11926;48.120;11.562;2023-06-14T02:15:56;11.70;80.40
23499;DHT22;11926;48.120;11.562;2023-06-14T02:18:46;11.70;80.40
23499;DHT22;11926;48.120;11.562;2023-06-14T02:21:34;11.60;80.80
23499;DHT22;11926;48.120;11.562;2023-06-14T02:24:23;11.60;81.00
23499;DHT22;11926;48.120;11.562;2023-06-14T02:27:11;11.60;81.40
23499;DHT22;11926;48.120;11.562;2023-06-14T02:29:58;11.50;81.60
23499;DHT22;11926;48.120;11.562;2023-06-14T02:32:47;11.50;81.80
23499;DHT22;11926;48.120;11.562;2023-06-14T02:35:37;11.50;81.90
23499;DHT22;11926;48.120;11.562;2023-06-14T02:38:24;11.50;82.00
23499;DHT22;11926;48.120;11.562;2023-06-14T02:41:10;11.40;81.80
23499;DHT22;11926;48.120;11.562;2023-06-14T02:43:58;11.40;82.10
23499;DHT22;11926;48.120;11.562;2023-06-14T02:46:47;11.40;82.10
23499;DHT22;11926;48.120;11.562;2023-06-14T02:49:37;11.30;82.30
23499;DHT22;11926;48.120;11.562;2023-06-14T02:52:25;11.30;82.70
23499;DHT22;11926;48.120;11.562;2023-06-14T02:55:12;11.30;82.70
23499;DHT22;11926;48.120;11.562;2023-06-14T02:58:00;11.30;82.80
23499;DHT22;11926;48.120;11.562;2023-06-14T03:00:47;11.20;83.20
23499;DHT22;11926;48.120;11.562;2023-06-14T03:03:34;11.20;83.30
23499;DHT22;11926;48.120;11.562;2023-06-14T03:06:22;11.20;83.30
23499;DHT22;11926;48.120;11.562;2023-06-14T03:09:11;11.10;83.30
23499;DHT22;11926;48.120;11.562;2023-06-14T03:11:59;11.10;83.30
23499;DHT22;11926;48.120;11.562;2023-06-14T03:14:45;11.10;83.60
23499;DHT22;11926;48.120;11.562;2023-06-14T03:17:35;11.10;84.00
23499;DHT22;11926;48.120;11.562;2023-06-14T03:20:26;11.00;84.20
23499;DHT22;11926;48.120;11.562;2023-06-14T03:23:16;11.10;84.30
23499;DHT22;11926;48.120;11.562;2023-06-14T03:26:03;11.00;84.40
23499;DHT22;11926;48.120;11.562;2023-06-14T03:28:51;11.00;84.50
23499;DHT22;11926;48.120;11.562;2023-06-14T03:31:56;11.00;84.90
23499;DHT22;11926;48.120;11.562;2023-06-14T03:34:47;11.00;85.00
23499;DHT22;11926;48.120;11.562;2023-06-14T03:37:39;11.00;85.10
23499;DHT22;11926;48.120;11.562;2023-06-14T03:40:28;11.00;85.20
23499;DHT22;11926;48.120;11.562;2023-06-14T03:43:20;11.00;85.30
23499;DHT22;11926;48.120;11.562;2023-06-14T03:46:08;11.00;85.40
23499;DHT22;11926;48.120;11.562;2023-06-14T03:48:55;11.00;85.70
23499;DHT22;11926;48.120;11.562;2023-06-14T03:51:42;11.00;85.40
23499;DHT22;11926;48.120;11.562;2023-06-14T03:54:31;11.10;85.80
23499;DHT22;11926;48.120;11.562;2023-06-14T03:57:23;11.10;85.80
23499;DHT22;11926;48.120;11.562;2023-06-14T04:00:14;11.10;85.90
23499;DHT22;11926;48.120;11.562;2023-06-14T04:03:02;11.10;86.10
23499;DHT22;11926;48.120;11.562;2023-06-14T04:05:52;11.10;86.30
23499;DHT22;11926;48.120;11.562;2023-06-14T04:08:42;11.10;86.50
23499;DHT22;11926;48.120;11.562;2023-06-14T04:11:31;11.20;86.70
23499;DHT22;11926;48.120;11.562;2023-06-14T04:14:20;11.20;86.90
23499;DHT22;11926;48.120;11.562;2023-06-14T04:17:07;11.30;86.90
23499;DHT22;11926;48.120;11.562;2023-06-14T04:19:56;11.30;86.90
23499;DHT22;11926;48.120;11.562;2023-06-14T04:22:46;11.40;87.10
23499;DHT22;11926;48.120;11.562;2023-06-14T04:25:34;11.40;87.10
23499;DHT22;11926;48.120;11.562;2023-06-14T04:28:21;11.50;87.10
23499;DHT22;11926;48.120;11.562;2023-06-14T04:31:17;11.60;87.30
23499;DHT22;11926;48.120;11.562;2023-06-14T04:34:07;11.70;87.60
23499;DHT22;11926;48.120;11.562;2023-06-14T04:36:56;11.70;87.30
23499;DHT22;11926;48.120;11.562;2023-06-14T04:39:50;11.80;87.10
23499;DHT22;11926;48.120;11.562;2023-06-14T04:42:37;11.90;86.70
23499;DHT22;11926;48.120;11.562;2023-06-14T04:45:27;12.00;85.80
23499;DHT22;11926;48.120;11.562;2023-06-14T04:48:19;12.10;85.40
23499;DHT22;11926;48.120;11.562;2023-06-14T04:51:07;12.30;84.50
23499;DHT22;11926;48.120;11.562;2023-06-14T04:53:55;12.50;83.70
23499;DHT22;11926;48.120;11.562;2023-06-14T04:56:45;12.70;82.60
23499;DHT22;11926;48.120;11.562;2023-06-14T04:59:32;12.80;81.60
23499;DHT22;11926;48.120;11.562;2023-06-14T05:02:22;13.00;81.40
23499;DHT22;11926;48.120;11.562;2023-06-14T05:05:12;13.20;80.00
23499;DHT22;11926;48.120;11.562;2023-06-14T05:08:02;13.40;79.40
23499;DHT22;11926;48.120;11.562;2023-06-14T05:10:49;13.50;78.70
23499;DHT22;11926;48.120;11.562;2023-06-14T05:16:25;13.90;76.20
23499;DHT22;11926;48.120;11.562;2023-06-14T05:19:15;14.00;76.00
23499;DHT22;11926;48.120;11.562;2023-06-14T05:22:05;14.20;75.30
23499;DHT22;11926;48.120;11.562;2023-06-14T05:24:52;14.40;74.80
23499;DHT22;11926;48.120;11.562;2023-06-14T05:27:39;14.60;74.10
23499;DHT22;11926;48.120;11.562;2023-06-14T05:30:27;14.80;73.80
23499;DHT22;11926;48.120;11.562;2023-06-14T05:33:16;15.00;73.10
23499;DHT22;11926;48.120;11.562;2023-06-14T05:36:04;15.10;72.70
23499;DHT22;11926;48.120;11.562;2023-06-14T05:38:55;15.30;71.90
23499;DHT22;11926;48.120;11.562;2023-06-14T05:41:45;15.40;72.30
23499;DHT22;11926;48.120;11.562;2023-06-14T05:44:34;15.60;71.30
23499;DHT22;11926;48.120;11.562;2023-06-14T05:47:21;15.80;70.60
23499;DHT22;11926;48.120;11.562;2023-06-14T05:50:09;16.00;70.00
23499;DHT22;11926;48.120;11.562;2023-06-14T05:52:56;16.10;68.70
23499;DHT22;11926;48.120;11.562;2023-06-14T05:55:45;16.30;67.80
23499;DHT22;11926;48.120;11.562;2023-06-14T05:58:32;16.40;67.40
23499;DHT22;11926;48.120;11.562;2023-06-14T06:01:19;16.60;66.80
23499;DHT22;11926;48.120;11.562;2023-06-14T06:04:06;16.70;66.50
23499;DHT22;11926;48.120;11.562;2023-06-14T06:06:53;16.80;66.10
23499;DHT22;11926;48.120;11.562;2023-06-14T06:09:40;17.10;65.20
23499;DHT22;11926;48.120;11.562;2023-06-14T06:12:29;17.20;64.20
23499;DHT22;11926;48.120;11.562;2023-06-14T06:15:16;17.40;63.80
23499;DHT22;11926;48.120;11.562;2023-06-14T06:18:04;17.50;63.20
23499;DHT22;11926;48.120;11.562;2023-06-14T06:20:52;17.70;61.90
23499;DHT22;11926;48.120;11.562;2023-06-14T06:23:39;17.80;61.30
23499;DHT22;11926;48.120;11.562;2023-06-14T06:26:26;17.90;60.90
23499;DHT22;11926;48.120;11.562;2023-06-14T06:29:15;18.10;60.20
23499;DHT22;11926;48.120;11.562;2023-06-14T06:32:02;18.20;59.60
23499;DHT22;11926;48.120;11.562;2023-06-14T06:34:49;18.40;59.20
23499;DHT22;11926;48.120;11.562;2023-06-14T06:37:37;18.60;59.20
23499;DHT22;11926;48.120;11.562;2023-06-14T06:40:24;18.80;58.60
23499;DHT22;11926;48.120;11.562;2023-06-14T06:43:11;19.00;58.40
23499;DHT22;11926;48.120;11.562;2023-06-14T06:46:07;19.10;57.80
23499;DHT22;11926;48.120;11.562;2023-06-14T06:48:54;19.40;57.00
23499;DHT22;11926;48.120;11.562;2023-06-14T06:51:41;19.60;56.30
23499;DHT22;11926;48.120;11.562;2023-06-14T06:54:31;19.80;55.60
23499;DHT22;11926;48.120;11.562;2023-06-14T06:57:21;20.00;55.20
23499;DHT22;11926;48.120;11.562;2023-06-14T07:00:14;20.30;55.10
23499;DHT22;11926;48.120;11.562;2023-06-14T07:03:07;20.50;54.80
23499;DHT22;11926;48.120;11.562;2023-06-14T07:05:55;20.90;53.60
23499;DHT22;11926;48.120;11.562;2023-06-14T07:08:47;21.30;52.40
23499;DHT22;11926;48.120;11.562;2023-06-14T07:11:38;21.90;51.20
23499;DHT22;11926;48.120;11.562;2023-06-14T07:14:28;22.80;49.70
23499;DHT22;11926;48.120;11.562;2023-06-14T07:17:17;23.90;47.90
23499;DHT22;11926;48.120;11.562;2023-06-14T07:20:09;25.10;45.60
23499;DHT22;11926;48.120;11.562;2023-06-14T07:23:00;26.30;42.80
23499;DHT22;11926;48.120;11.562;2023-06-14T07:25:47;27.30;42.00
23499;DHT22;11926;48.120;11.562;2023-06-14T07:28:34;28.40;40.20
23499;DHT22;11926;48.120;11.562;2023-06-14T07:31:23;29.40;38.40
23499;DHT22;11926;48.120;11.562;2023-06-14T07:34:10;30.30;37.10
23499;DHT22;11926;48.120;11.562;2023-06-14T07:36:58;31.10;35.70
23499;DHT22;11926;48.120;11.562;2023-06-14T07:39:46;31.80;34.40
23499;DHT22;11926;48.120;11.562;2023-06-14T07:42:33;33.30;33.30
23499;DHT22;11926;48.120;11.562;2023-06-14T07:45:21;33.50;31.20
23499;DHT22;11926;48.120;11.562;2023-06-14T07:48:09;33.60;30.10
23499;DHT22;11926;48.120;11.562;2023-06-14T07:53:45;34.20;29.40
23499;DHT22;11926;48.120;11.562;2023-06-14T07:56:33;35.30;28.90
23499;DHT22;11926;48.120;11.562;2023-06-14T07:59:20;36.10;27.60
23499;DHT22;11926;48.120;11.562;2023-06-14T08:02:07;36.10;26.90
23499;DHT22;11926;48.120;11.562;2023-06-14T08:04:54;36.10;26.70
23499;DHT22;11926;48.120;11.562;2023-06-14T08:07:41;36.50;26.40
23499;DHT22;11926;48.120;11.562;2023-06-14T08:10:30;36.70;25.40
23499;DHT22;11926;48.120;11.562;2023-06-14T08:13:17;36.80;25.10
23499;DHT22;11926;48.120;11.562;2023-06-14T08:16:04;36.80;25.10
23499;DHT22;11926;48.120;11.562;2023-06-14T08:18:52;36.90;25.40
23499;DHT22;11926;48.120;11.562;2023-06-14T08:21:39;36.90;24.60
23499;DHT22;11926;48.120;11.562;2023-06-14T08:24:26;36.50;25.20
23499;DHT22;11926;48.120;11.562;2023-06-14T08:27:14;36.00;25.20
23499;DHT22;11926;48.120;11.562;2023-06-14T08:30:02;35.50;24.90
23499;DHT22;11926;48.120;11.562;2023-06-14T08:32:49;35.50;25.00
23499;DHT22;11926;48.120;11.562;2023-06-14T08:35:55;35.60;25.20
23499;DHT22;11926;48.120;11.562;2023-06-14T08:38:42;35.50;24.80
23499;DHT22;11926;48.120;11.562;2023-06-14T08:41:30;35.60;24.90
23499;DHT22;11926;48.120;11.562;2023-06-14T08:44:18;36.20;24.30
23499;DHT22;11926;48.120;11.562;2023-06-14T08:47:07;36.70;23.90
23499;DHT22;11926;48.120;11.562;2023-06-14T08:49:57;36.80;24.00
23499;DHT22;11926;48.120;11.562;2023-06-14T08:52:46;37.10;24.00
23499;DHT22;11926;48.120;11.562;2023-06-14T08:55:36;37.60;23.40
23499;DHT22;11926;48.120;11.562;2023-06-14T08:58:28;37.90;23.30
23499;DHT22;11926;48.120;11.562;2023-06-14T09:01:18;38.00;22.70
23499;DHT22;11926;48.120;11.562;2023-06-14T09:04:07;37.70;23.20
23499;DHT22;11926;48.120;11.562;2023-06-14T09:06:54;37.50;23.00
23499;DHT22;11926;48.120;11.562;2023-06-14T09:09:41;37.50;23.30
23499;DHT22;11926;48.120;11.562;2023-06-14T09:12:48;37.20;23.10
23499;DHT22;11926;48.120;11.562;2023-06-14T09:15:35;36.80;22.80
23499;DHT22;11926;48.120;11.562;2023-06-14T09:18:35;37.30;23.20
23499;DHT22;11926;48.120;11.562;2023-06-14T09:21:22;38.20;22.30
23499;DHT22;11926;48.120;11.562;2023-06-14T09:24:14;38.10;23.30
23499;DHT22;11926;48.120;11.562;2023-06-14T09:27:01;38.60;22.60
23499;DHT22;11926;48.120;11.562;2023-06-14T09:29:48;38.60;22.30
23499;DHT22;11926;48.120;11.562;2023-06-14T09:32:37;37.90;22.20
23499;DHT22;11926;48.120;11.562;2023-06-14T09:35:27;37.60;22.60
23499;DHT22;11926;48.120;11.562;2023-06-14T09:38:15;37.70;23.20
23499;DHT22;11926;48.120;11.562;2023-06-14T09:41:03;37.50;22.40
23499;DHT22;11926;48.120;11.562;2023-06-14T09:43:50;35.90;23.20
23499;DHT22;11926;48.120;11.562;2023-06-14T09:46:38;34.00;24.70
23499;DHT22;11926;48.120;11.562;2023-06-14T09:49:25;33.20;26.80
23499;DHT22;11926;48.120;11.562;2023-06-14T09:52:17;33.10;27.20
23499;DHT22;11926;48.120;11.562;2023-06-14T09:55:11;32.80;27.30
23499;DHT22;11926;48.120;11.562;2023-06-14T09:58:01;32.00;27.30
23499;DHT22;11926;48.120;11.562;2023-06-14T10:00:52;30.70;28.00
23499;DHT22;11926;48.120;11.562;2023-06-14T10:03:40;29.70;29.60
23499;DHT22;11926;48.120;11.562;2023-06-14T10:06:39;28.90;29.70
23499;DHT22;11926;48.120;11.562;2023-06-14T10:09:29;28.30;30.10
23499;DHT22;11926;48.120;11.562;2023-06-14T10:12:18;28.00;31.90
23499;DHT22;11926;48.120;11.562;2023-06-14T10:15:09;27.90;31.00
23499;DHT22;11926;48.120;11.562;2023-06-14T10:18:03;27.60;32.30
23499;DHT22;11926;48.120;11.562;2023-06-14T10:21:02;27.60;34.00
23499;DHT22;11926;48.120;11.562;2023-06-14T10:23:54;27.50;34.00
23499;DHT22;11926;48.120;11.562;2023-06-14T10:26:53;27.40;33.40
23499;DHT22;11926;48.120;11.562;2023-06-14T10:30:02;27.20;33.90
23499;DHT22;11926;48.120;11.562;2023-06-14T10:33:04;27.00;34.50
23499;DHT22;11926;48.120;11.562;2023-06-14T10:36:08;26.90;35.70
23499;DHT22;11926;48.120;11.562;2023-06-14T10:38:58;27.10;35.90
23499;DHT22;11926;48.120;11.562;2023-06-14T10:41:56;27.40;35.40
23499;DHT22;11926;48.120;11.562;2023-06-14T10:44:45;27.40;35.20
23499;DHT22;11926;48.120;11.562;2023-06-14T10:47:34;27.40;35.30
23499;DHT22;11926;48.120;11.562;2023-06-14T10:50:28;27.00;35.70
23499;DHT22;11926;48.120;11.562;2023-06-14T10:53:23;26.60;36.50
23499;DHT22;11926;48.120;11.562;2023-06-14T10:56:23;26.30;36.70
23499;DHT22;11926;48.120;11.562;2023-06-14T10:59:14;26.00;36.90
23499;DHT22;11926;48.120;11.562;2023-06-14T11:02:20;25.80;37.30
23499;DHT22;11926;48.120;11.562;2023-06-14T11:05:15;25.60;38.30
23499;DHT22;11926;48.120;11.562;2023-06-14T11:08:27;25.50;38.10
23499;DHT22;11926;48.120;11.562;2023-06-14T11:11:17;25.50;38.60
23499;DHT22;11926;48.120;11.562;2023-06-14T11:14:05;25.50;38.20
23499;DHT22;11926;48.120;11.562;2023-06-14T11:16:53;25.40;38.30
23499;DHT22;11926;48.120;11.562;2023-06-14T11:19:40;25.50;38.10
23499;DHT22;11926;48.120;11.562;2023-06-14T11:22:27;25.60;39.00
23499;DHT22;11926;48.120;11.562;2023-06-14T11:25:14;25.90;39.00
23499;DHT22;11926;48.120;11.562;2023-06-14T11:28:02;26.20;37.50
23499;DHT22;11926;48.120;11.562;2023-06-14T11:30:49;26.30;37.10
23499;DHT22;11926;48.120;11.562;2023-06-14T11:33:52;26.50;36.70
23499;DHT22;11926;48.120;11.562;2023-06-14T11:36:40;26.50;36.40
23499;DHT22;11926;48.120;11.562;2023-06-14T11:39:27;26.50;36.10
23499;DHT22;11926;48.120;11.562;2023-06-14T11:42:15;26.40;35.00
23499;DHT22;11926;48.120;11.562;2023-06-14T11:45:03;26.40;37.50
23499;DHT22;11926;48.120;11.562;2023-06-14T11:47:56;26.50;36.40
23499;DHT22;11926;48.120;11.562;2023-06-14T11:50:49;26.50;35.30
23499;DHT22;11926;48.120;11.562;2023-06-14T11:53:37;26.50;34.50
23499;DHT22;11926;48.120;11.562;2023-06-14T11:56:24;26.50;35.20
23499;DHT22;11926;48.120;11.562;2023-06-14T11:59:13;26.80;34.40
23499;DHT22;11926;48.120;11.562;2023-06-14T12:02:03;27.00;33.40
23499;DHT22;11926;48.120;11.562;2023-06-14T12:04:51;27.00;33.90
23499;DHT22;11926;48.120;11.562;2023-06-14T12:07:39;26.80;33.00
23499;DHT22;11926;48.120;11.562;2023-06-14T12:10:28;26.40;33.60
23499;DHT22;11926;48.120;11.562;2023-06-14T12:13:17;26.10;34.60
23499;DHT22;11926;48.120;11.562;2023-06-14T12:16:07;26.10;34.40
23499;DHT22;11926;48.120;11.562;2023-06-14T12:18:55;26.30;34.60
23499;DHT22;11926;48.120;11.562;2023-06-14T12:21:46;26.50;34.90
23499;DHT22;11926;48.120;11.562;2023-06-14T12:24:37;26.80;33.80
23499;DHT22;11926;48.120;11.562;2023-06-14T12:27:25;26.90;33.70
23499;DHT22;11926;48.120;11.562;2023-06-14T12:30:15;26.90;33.30
23499;DHT22;11926;48.120;11.562;2023-06-14T12:33:01;26.80;33.50
23499;DHT22;11926;48.120;11.562;2023-06-14T12:35:50;26.60;34.50
23499;DHT22;11926;48.120;11.562;2023-06-14T12:38:38;26.70;34.40
23499;DHT22;11926;48.120;11.562;2023-06-14T12:41:26;26.80;36.00
23499;DHT22;11926;48.120;11.562;2023-06-14T12:44:15;27.10;35.70
23499;DHT22;11926;48.120;11.562;2023-06-14T12:47:01;27.40;34.70
23499;DHT22;11926;48.120;11.562;2023-06-14T12:49:49;27.70;35.20
23499;DHT22;11926;48.120;11.562;2023-06-14T12:52:36;27.80;33.60
23499;DHT22;11926;48.120;11.562;2023-06-14T12:55:23;27.80;32.70
23499;DHT22;11926;48.120;11.562;2023-06-14T12:58:12;27.70;33.10
23499;DHT22;11926;48.120;11.562;2023-06-14T13:00:59;27.80;32.60
23499;DHT22;11926;48.120;11.562;2023-06-14T13:03:47;27.80;32.90
23499;DHT22;11926;48.120;11.562;2023-06-14T13:06:36;27.60;32.60
23499;DHT22;11926;48.120;11.562;2023-06-14T13:09:24;27.30;32.70
23499;DHT22;11926;48.120;11.562;2023-06-14T13:12:11;27.00;33.90
23499;DHT22;11926;48.120;11.562;2023-06-14T13:15:00;27.00;33.90
23499;DHT22;11926;48.120;11.562;2023-06-14T13:17:47;27.10;33.90
23499;DHT22;11926;48.120;11.562;2023-06-14T13:20:35;27.20;34.10
23499;DHT22;11926;48.120;11.562;2023-06-14T13:23:22;27.20;33.80
23499;DHT22;11926;48.120;11.562;2023-06-14T13:26:09;27.10;33.40
23499;DHT22;11926;48.120;11.562;2023-06-14T13:28:58;26.90;33.00
23499;DHT22;11926;48.120;11.562;2023-06-14T13:31:47;26.90;33.00
23499;DHT22;11926;48.120;11.562;2023-06-14T13:34:34;26.90;33.30
23499;DHT22;11926;48.120;11.562;2023-06-14T13:37:20;26.90;33.10
23499;DHT22;11926;48.120;11.562;2023-06-14T13:40:08;26.90;33.20
23499;DHT22;11926;48.120;11.562;2023-06-14T13:42:55;26.90;33.60
23499;DHT22;11926;48.120;11.562;2023-06-14T13:45:46;27.00;33.50
23499;DHT22;11926;48.120;11.562;2023-06-14T13:48:34;27.30;33.10
23499;DHT22;11926;48.120;11.562;2023-06-14T13:51:21;27.40;32.30
23499;DHT22;11926;48.120;11.562;2023-06-14T13:54:08;27.30;32.10
23499;DHT22;11926;48.120;11.562;2023-06-14T13:56:55;27.50;32.60
23499;DHT22;11926;48.120;11.562;2023-06-14T13:59:42;27.70;32.10
23499;DHT22;11926;48.120;11.562;2023-06-14T14:02:31;27.90;31.60
23499;DHT22;11926;48.120;11.562;2023-06-14T14:05:19;27.80;31.10
23499;DHT22;11926;48.120;11.562;2023-06-14T14:08:11;27.70;31.60
23499;DHT22;11926;48.120;11.562;2023-06-14T14:10:59;27.60;32.00
23499;DHT22;11926;48.120;11.562;2023-06-14T14:13:46;27.50;32.30
23499;DHT22;11926;48.120;11.562;2023-06-14T14:16:33;27.60;32.30
23499;DHT22;11926;48.120;11.562;2023-06-14T14:19:22;27.40;31.30
23499;DHT22;11926;48.120;11.562;2023-06-14T14:22:10;27.10;31.50
23499;DHT22;11926;48.120;11.562;2023-06-14T14:24:58;26.90;32.20
23499;DHT22;11926;48.120;11.562;2023-06-14T14:27:45;26.90;32.20
23499;DHT22;11926;48.120;11.562;2023-06-14T14:30:32;27.00;32.30
23499;DHT22;11926;48.120;11.562;2023-06-14T14:33:20;27.20;32.00
23499;DHT22;11926;48.120;11.562;2023-06-14T14:36:07;27.30;32.50
23499;DHT22;11926;48.120;11.562;2023-06-14T14:38:56;27.40;32.20
23499;DHT22;11926;48.120;11.562;2023-06-14T14:41:43;27.50;32.70
23499;DHT22;11926;48.120;11.562;2023-06-14T14:44:30;27.60;32.30
23499;DHT22;11926;48.120;11.562;2023-06-14T14:47:17;27.70;32.60
23499;DHT22;11926;48.120;11.562;2023-06-14T14:50:05;27.60;32.90
23499;DHT22;11926;48.120;11.562;2023-06-14T14:52:55;27.60;32.80
23499;DHT22;11926;48.120;11.562;2023-06-14T14:55:43;27.40;32.60
23499;DHT22;11926;48.120;11.562;2023-06-14T14:58:31;27.30;32.10
23499;DHT22;11926;48.120;11.562;2023-06-14T15:01:18;27.10;33.50
23499;DHT22;11926;48.120;11.562;2023-06-14T15:04:05;27.10;33.60
23499;DHT22;11926;48.120;11.562;2023-06-14T15:06:52;26.90;33.20
23499;DHT22;11926;48.120;11.562;2023-06-14T15:09:39;26.70;34.10
23499;DHT22;11926;48.120;11.562;2023-06-14T15:12:32;26.60;35.30
23499;DHT22;11926;48.120;11.562;2023-06-14T15:15:19;26.70;34.80
23499;DHT22;11926;48.120;11.562;2023-06-14T15:18:05;26.50;34.60
23499;DHT22;11926;48.120;11.562;2023-06-14T15:23:15;26.50;34.40
23499;DHT22;11926;48.120;11.562;2023-06-14T15:26:05;26.60;35.10
23499;DHT22;11926;48.120;11.562;2023-06-14T15:28:52;26.70;36.20
23499;DHT22;11926;48.120;11.562;2023-06-14T15:31:39;26.70;35.60
23499;DHT22;11926;48.120;11.562;2023-06-14T15:34:26;26.60;34.70
23499;DHT22;11926;48.120;11.562;2023-06-14T15:37:14;26.40;35.40
23499;DHT22;11926;48.120;11.562;2023-06-14T15:40:02;26.30;35.20
23499;DHT22;11926;48.120;11.562;2023-06-14T15:42:49;26.30;34.70
23499;DHT22;11926;48.120;11.562;2023-06-14T15:45:37;26.20;34.30
23499;DHT22;11926;48.120;11.562;2023-06-14T15:48:25;26.10;35.20
23499;DHT22;11926;48.120;11.562;2023-06-14T15:51:24;26.10;35.50
23499;DHT22;11926;48.120;11.562;2023-06-14T15:54:12;26.10;35.20
23499;DHT22;11926;48.120;11.562;2023-06-14T15:57:01;26.00;35.70
23499;DHT22;11926;48.120;11.562;2023-06-14T15:59:48;26.00;35.30
23499;DHT22;11926;48.120;11.562;2023-06-14T16:02:35;26.00;35.00
23499;DHT22;11926;48.120;11.562;2023-06-14T16:05:22;26.00;35.40
23499;DHT22;11926;48.120;11.562;2023-06-14T16:08:09;25.90;35.70
23499;DHT22;11926;48.120;11.562;2023-06-14T16:10:56;25.90;36.10
23499;DHT22;11926;48.120;11.562;2023-06-14T16:13:45;25.80;36.50
23499;DHT22;11926;48.120;11.562;2023-06-14T16:16:32;25.50;36.70
23499;DHT22;11926;48.120;11.562;2023-06-14T16:19:19;25.20;38.60
23499;DHT22;11926;48.120;11.562;2023-06-14T16:22:07;25.00;38.40
23499;DHT22;11926;48.120;11.562;2023-06-14T16:24:54;24.80;38.50
23499;DHT22;11926;48.120;11.562;2023-06-14T16:27:41;24.70;38.40
23499;DHT22;11926;48.120;11.562;2023-06-14T16:30:29;24.50;38.40
23499;DHT22;11926;48.120;11.562;2023-06-14T16:33:16;24.40;39.10
23499;DHT22;11926;48.120;11.562;2023-06-14T16:36:04;24.40;39.00
23499;DHT22;11926;48.120;11.562;2023-06-14T16:38:51;24.40;39.10
23499;DHT22;11926;48.120;11.562;2023-06-14T16:41:38;24.40;39.60
23499;DHT22;11926;48.120;11.562;2023-06-14T16:44:25;24.30;39.30
23499;DHT22;11926;48.120;11.562;2023-06-14T16:47:13;24.20;39.70
23499;DHT22;11926;48.120;11.562;2023-06-14T16:50:00;24.20;40.90
23499;DHT22;11926;48.120;11.562;2023-06-14T16:52:48;24.30;41.40
23499;DHT22;11926;48.120;11.562;2023-06-14T16:55:35;24.30;41.40
23499;DHT22;11926;48.120;11.562;2023-06-14T16:58:22;24.30;41.70
23499;DHT22;11926;48.120;11.562;2023-06-14T17:01:09;24.30;40.90
23499;DHT22;11926;48.120;11.562;2023-06-14T17:03:57;24.30;40.30
23499;DHT22;11926;48.120;11.562;2023-06-14T17:06:45;24.20;40.10
23499;DHT22;11926;48.120;11.562;2023-06-14T17:09:32;24.10;40.40
23499;DHT22;11926;48.120;11.562;2023-06-14T17:12:19;24.00;40.50
23499;DHT22;11926;48.120;11.562;2023-06-14T17:15:07;23.80;40.40
23499;DHT22;11926;48.120;11.562;2023-06-14T17:17:54;23.70;41.00
23499;DHT22;11926;48.120;11.562;2023-06-14T17:20:42;23.70;40.90
23499;DHT22;11926;48.120;11.562;2023-06-14T17:23:29;23.60;41.00
23499;DHT22;11926;48.120;11.562;2023-06-14T17:26:16;23.50;41.00
23499;DHT22;11926;48.120;11.562;2023-06-14T17:29:03;23.30;41.40
23499;DHT22;11926;48.120;11.562;2023-06-14T17:31:50;23.20;42.10
23499;DHT22;11926;48.120;11.562;2023-06-14T17:34:37;23.20;42.30
23499;DHT22;11926;48.120;11.562;2023-06-14T17:37:26;23.10;42.40